Randolph, Ohio
Current Conditions -  °F | °C
As of 4:12 AM on Thursday 23 Oct 2014 (Local Time) from KAKR Reporting Station
Broken Clouds Broken Clouds  
Wind Chill: 46°   Ceiling: 1500
Heat Index: 46°   Visibility: 10mi
Dew Point: 43°   Wind: 3mph
Humidity: 89%   Direction: 340°NNW
Pressure: 30.18"   Gusts: NA
Location:  41.03°N, 81.25°W
Report Text: KAKR 230812Z AUTO 34003KT 10SM BKN015 08/06 A3018 RMK AO2 T00780061
Loading
Personal Weather Stations






























Interactive Weather Map
Tropical Storm Tracking
New forecast layout! Learn more

10-Day Weather Forecast

Advertisements
Track Severe Weather on mobile